createdAt,value
2023-01-19T05:04:45.725Z,1.30
2023-01-19T05:07:49.074Z,1.30
2023-01-19T05:10:51.838Z,1.00
2023-01-19T05:13:54.673Z,1.33
2023-01-19T05:16:57.308Z,0.80
2023-01-19T05:20:00.195Z,1.62
2023-01-19T05:23:03.178Z,1.35
2023-01-19T05:26:06.421Z,0.50
2023-01-19T05:29:10.247Z,1.12
2023-01-19T05:32:13.753Z,1.75
2023-01-19T05:35:20.120Z,2.33
2023-01-19T05:38:35.387Z,2.60
2023-01-19T05:41:38.436Z,1.97
2023-01-19T05:44:41.276Z,3.75
2023-01-19T05:47:43.843Z,2.03
2023-01-19T05:50:49.627Z,2.97
2023-01-19T05:53:52.240Z,2.28
2023-01-19T05:56:55.073Z,3.10
2023-01-19T05:59:57.581Z,2.72
2023-01-19T06:03:02.529Z,3.83
2023-01-19T06:06:05.911Z,3.42
2023-01-19T06:09:08.982Z,2.40
2023-01-19T06:12:11.890Z,2.30
2023-01-19T06:15:15.493Z,2.33
2023-01-19T06:18:18.697Z,2.08
2023-01-19T06:21:21.521Z,2.17
2023-01-19T06:24:25.320Z,2.62
2023-01-19T06:27:28.002Z,2.47
2023-01-19T06:30:31.008Z,2.40
2023-01-19T06:33:33.527Z,3.47
2023-01-19T06:36:36.781Z,3.20
2023-01-19T06:39:41.083Z,3.60
2023-01-19T06:42:44.080Z,2.67
2023-01-19T06:45:47.340Z,3.00
2023-01-19T06:48:50.258Z,3.22
2023-01-19T06:51:52.960Z,3.03
2023-01-19T06:54:55.703Z,2.35
2023-01-19T06:57:59.675Z,3.22
2023-01-19T07:01:07.227Z,3.20
2023-01-19T07:04:14.044Z,3.10
2023-01-19T07:07:16.921Z,3.72
2023-01-19T07:10:19.585Z,4.12
2023-01-19T07:13:22.479Z,4.95
2023-01-19T07:16:25.399Z,5.55
2023-01-19T07:19:28.977Z,5.65
2023-01-19T07:22:31.482Z,5.62
2023-01-19T07:25:34.749Z,5.22
2023-01-19T07:28:37.594Z,7.82
2023-01-19T07:31:40.519Z,9.02
2023-01-19T07:34:43.234Z,8.15
2023-01-19T07:37:46.095Z,7.75
2023-01-19T07:40:48.719Z,8.80
2023-01-19T07:43:52.776Z,7.68
2023-01-19T07:46:55.362Z,8.07
2023-01-19T07:49:58.303Z,13.30
2023-01-19T07:53:08.727Z,8.80
2023-01-19T07:56:11.835Z,7.10
2023-01-19T07:59:14.886Z,9.48
2023-01-19T08:02:17.769Z,7.07
2023-01-19T08:05:21.181Z,6.70
2023-01-19T08:08:23.699Z,6.80
2023-01-19T08:11:26.795Z,9.32
2023-01-19T08:14:29.389Z,8.00
2023-01-19T08:17:32.265Z,8.88
2023-01-19T08:20:35.668Z,10.45
2023-01-19T08:23:38.591Z,10.05
2023-01-19T08:26:41.203Z,9.77
2023-01-19T08:29:44.136Z,10.15
2023-01-19T08:32:46.865Z,10.45
2023-01-19T08:35:52.909Z,10.57
2023-01-19T08:38:55.614Z,10.60
2023-01-19T08:42:00.651Z,10.27
2023-01-19T08:45:03.228Z,9.48
2023-01-19T08:48:06.455Z,9.57
2023-01-19T08:51:09.321Z,12.20
2023-01-19T08:54:12.696Z,11.00
2023-01-19T08:57:15.435Z,10.90
2023-01-19T09:00:19.130Z,13.80
2023-01-19T09:03:22.916Z,13.45
2023-01-19T09:06:26.191Z,13.60
2023-01-19T09:09:28.844Z,14.52
2023-01-19T09:12:32.944Z,15.25
2023-01-19T09:15:37.776Z,14.35
2023-01-19T09:18:41.464Z,14.57
2023-01-19T09:21:44.012Z,18.05
2023-01-19T09:24:46.876Z,15.27
2023-01-19T09:27:49.405Z,16.62
2023-01-19T09:30:52.563Z,17.12
2023-01-19T09:33:55.187Z,17.67
2023-01-19T09:36:58.188Z,18.70
2023-01-19T09:40:01.063Z,17.70
2023-01-19T09:43:16.995Z,20.15
2023-01-19T09:46:24.469Z,18.73
2023-01-19T09:49:38.536Z,21.23
2023-01-19T09:52:50.429Z,24.02
2023-01-19T09:55:53.427Z,22.17
2023-01-19T09:58:56.112Z,20.25
2023-01-19T10:02:06.326Z,21.95
2023-01-19T10:05:20.536Z,22.73
2023-01-19T10:08:41.767Z,24.50
2023-01-19T10:15:06.937Z,26.55
2023-01-19T10:18:48.302Z,28.10
2023-01-19T10:21:51.592Z,27.27
2023-01-19T10:25:01.774Z,28.85
2023-01-19T10:28:04.805Z,30.10
2023-01-19T10:31:09.840Z,28.02
2023-01-19T10:34:21.537Z,26.90
2023-01-19T10:37:33.397Z,26.77
2023-01-19T10:40:52.277Z,27.48
2023-01-19T10:44:04.259Z,25.05
2023-01-19T10:47:17.775Z,25.33
2023-01-19T10:50:25.305Z,25.98
2023-01-19T10:53:28.223Z,24.15
2023-01-19T10:56:35.017Z,25.50
2023-01-19T10:59:47.919Z,23.92
2023-01-19T11:02:51.438Z,22.95
2023-01-19T11:05:54.049Z,21.02
2023-01-19T11:09:18.612Z,19.92
2023-01-19T11:12:23.799Z,21.48
2023-01-19T11:15:35.886Z,20.05
2023-01-19T11:18:40.263Z,20.25
2023-01-19T11:21:43.688Z,20.88
2023-01-19T11:24:46.304Z,19.75
2023-01-19T11:27:52.132Z,19.40
2023-01-19T11:31:03.670Z,19.90
2023-01-19T11:34:37.459Z,19.80
2023-01-19T11:37:42.888Z,21.00
2023-01-19T11:40:58.062Z,24.08
2023-01-19T11:44:15.074Z,25.75
2023-01-19T11:47:38.346Z,25.73
2023-01-19T11:50:46.006Z,24.80
2023-01-19T11:53:52.761Z,25.48
2023-01-19T11:56:59.390Z,25.12
2023-01-19T12:00:17.495Z,29.42
2023-01-19T12:03:39.099Z,29.00
2023-01-19T12:06:51.953Z,26.02
2023-01-19T12:10:00.314Z,26.12
2023-01-19T12:13:03.852Z,28.15
2023-01-19T12:16:12.175Z,26.90
2023-01-19T12:19:18.570Z,25.85
2023-01-19T12:22:23.849Z,25.45
2023-01-19T12:25:54.762Z,27.13
2023-01-19T12:29:03.906Z,24.42
2023-01-19T12:32:18.643Z,29.77
2023-01-19T12:36:10.326Z,25.90
2023-01-19T12:39:19.022Z,24.77
2023-01-19T12:42:22.846Z,27.65
2023-01-19T12:45:31.571Z,27.98
2023-01-19T12:48:41.987Z,27.27
2023-01-19T12:51:45.831Z,25.42
2023-01-19T12:55:00.605Z,27.10
2023-01-19T12:58:03.159Z,26.58
2023-01-19T13:01:21.176Z,27.73
2023-01-19T13:04:32.260Z,25.88
2023-01-19T13:08:06.319Z,22.92
2023-01-19T13:11:17.689Z,27.20
2023-01-19T13:14:37.683Z,25.12
2023-01-19T13:17:47.560Z,23.30
2023-01-19T13:21:04.860Z,24.67
2023-01-19T13:24:10.556Z,24.15
2023-01-19T13:27:13.837Z,24.90
2023-01-19T13:30:19.487Z,21.02
2023-01-19T13:33:25.699Z,21.75
2023-01-19T13:36:36.607Z,23.23
2023-01-19T13:39:44.230Z,19.55
2023-01-19T13:42:48.105Z,22.42
2023-01-19T13:45:54.199Z,20.65
2023-01-19T13:49:19.966Z,21.08
2023-01-19T13:52:24.075Z,24.15
2023-01-19T13:55:29.037Z,22.77
2023-01-19T13:58:32.416Z,24.30
2023-01-19T14:01:35.444Z,23.40
2023-01-19T14:04:38.534Z,24.95
2023-01-19T14:07:41.252Z,24.45
2023-01-19T14:10:54.279Z,26.08
2023-01-19T14:13:56.835Z,27.33
2023-01-19T14:16:59.701Z,28.12
2023-01-19T14:20:05.500Z,30.42
2023-01-19T14:23:37.905Z,26.70
2023-01-19T14:26:42.971Z,29.23
2023-01-19T14:29:47.550Z,29.87
2023-01-19T14:32:50.091Z,32.17
2023-01-19T14:35:52.903Z,31.70
2023-01-19T14:39:01.080Z,29.60
2023-01-19T14:42:06.771Z,30.60
2023-01-19T14:45:21.577Z,28.40
2023-01-19T14:48:25.784Z,31.83
2023-01-19T14:51:30.067Z,30.80
2023-01-19T14:54:40.568Z,28.70
2023-01-19T14:57:43.145Z,32.97
2023-01-19T15:00:47.184Z,32.67
2023-01-19T15:03:50.005Z,31.20
2023-01-19T15:06:52.790Z,28.50
2023-01-19T15:09:55.385Z,29.80
2023-01-19T15:12:59.999Z,30.58
2023-01-19T15:16:03.826Z,29.42
2023-01-19T15:19:09.199Z,35.65
2023-01-19T15:22:13.403Z,32.83
2023-01-19T15:25:19.302Z,31.10
2023-01-19T15:28:21.858Z,33.60
2023-01-19T15:31:26.363Z,35.95
2023-01-19T15:34:28.930Z,29.77
2023-01-19T15:37:33.014Z,33.13
2023-01-19T15:40:35.719Z,32.67
2023-01-19T15:43:38.459Z,31.50
2023-01-19T15:46:41.089Z,31.70
2023-01-19T15:49:43.978Z,33.85
2023-01-19T15:52:46.814Z,36.97
2023-01-19T15:55:55.462Z,33.60
2023-01-19T15:58:59.087Z,35.90
2023-01-19T16:02:02.783Z,36.05
2023-01-19T16:05:06.906Z,37.13
2023-01-19T16:08:10.896Z,40.50
2023-01-19T16:11:15.742Z,38.70
2023-01-19T16:14:18.449Z,36.00
2023-01-19T16:17:21.244Z,39.92
2023-01-19T16:20:23.819Z,38.40
2023-01-19T16:23:26.813Z,38.63
2023-01-19T16:26:33.696Z,39.30
2023-01-19T16:29:36.441Z,37.45
2023-01-19T16:32:39.084Z,37.28
2023-01-19T16:35:42.053Z,37.15
2023-01-19T16:38:44.699Z,38.28
